createdAt,value
2022-11-23T00:01:56.855Z,3.75
2022-11-23T00:04:26.511Z,3.15
2022-11-23T00:06:55.979Z,3.20
2022-11-23T00:09:25.478Z,3.42
2022-11-23T00:11:54.981Z,2.72
2022-11-23T00:14:27.087Z,2.42
2022-11-23T00:16:56.624Z,2.85
2022-11-23T00:19:26.200Z,2.60
2022-11-23T00:21:55.910Z,2.85
2022-11-23T00:24:25.386Z,2.83
2022-11-23T00:26:54.850Z,2.60
2022-11-23T00:29:27.404Z,2.70
2022-11-23T00:31:56.860Z,2.88
2022-11-23T00:34:26.338Z,2.70
2022-11-23T00:36:55.778Z,2.88
2022-11-23T00:39:25.215Z,2.63
2022-11-23T00:41:54.684Z,2.70
2022-11-23T00:44:26.702Z,2.63
2022-11-23T00:46:56.173Z,2.75
2022-11-23T00:49:25.653Z,2.60
2022-11-23T00:51:55.096Z,3.00
2022-11-23T00:54:24.566Z,2.72
2022-11-23T00:56:54.041Z,2.70
2022-11-23T00:59:23.624Z,2.35
2022-11-23T01:01:55.769Z,2.60
2022-11-23T01:04:25.687Z,2.58
2022-11-23T01:06:58.103Z,2.30
2022-11-23T01:09:28.019Z,2.30
2022-11-23T01:11:57.501Z,2.45
2022-11-23T01:14:26.992Z,2.47
2022-11-23T01:16:59.024Z,2.40
2022-11-23T01:19:28.553Z,2.70
2022-11-23T01:21:58.085Z,2.72
2022-11-23T01:24:27.816Z,2.58
2022-11-23T01:26:57.716Z,2.55
2022-11-23T01:29:27.320Z,2.50
2022-11-23T01:31:59.344Z,2.55
2022-11-23T01:34:28.812Z,2.55
2022-11-23T01:36:58.350Z,2.50
2022-11-23T01:39:27.908Z,2.30
2022-11-23T01:41:57.329Z,2.40
2022-11-23T01:44:28.389Z,2.47
2022-11-23T01:49:30.701Z,2.72
2022-11-23T01:52:01.022Z,2.40
2022-11-23T01:54:32.801Z,2.38
2022-11-23T01:57:03.277Z,2.50
2022-11-23T01:59:33.995Z,2.70
2022-11-23T02:02:06.423Z,2.60
2022-11-23T02:04:37.906Z,2.38
2022-11-23T02:07:07.496Z,2.60
2022-11-23T02:09:37.091Z,2.67
2022-11-23T02:12:07.342Z,2.92
2022-11-23T02:14:36.943Z,2.90
2022-11-23T02:17:09.084Z,2.60
2022-11-23T02:19:43.049Z,2.45
2022-11-23T02:22:14.283Z,2.60
2022-11-23T02:24:45.308Z,2.40
2022-11-23T02:27:17.499Z,2.83
2022-11-23T02:29:47.036Z,2.97
2022-11-23T02:32:18.862Z,3.00
2022-11-23T02:34:48.404Z,2.97
2022-11-23T02:37:18.009Z,2.90
2022-11-23T02:39:48.317Z,3.10
2022-11-23T02:42:20.569Z,2.90
2022-11-23T02:44:52.059Z,2.80
2022-11-23T02:47:21.595Z,3.10
2022-11-23T02:49:51.567Z,2.90
2022-11-23T02:52:21.193Z,2.85
2022-11-23T02:54:50.722Z,3.15
2022-11-23T02:57:22.810Z,2.75
2022-11-23T02:59:52.893Z,2.80
2022-11-23T03:02:22.472Z,3.15
2022-11-23T03:04:52.004Z,2.85
2022-11-23T03:07:21.652Z,3.00
2022-11-23T03:09:51.304Z,2.80
2022-11-23T03:12:23.461Z,2.85
2022-11-23T03:14:53.551Z,2.60
2022-11-23T03:17:23.113Z,2.70
2022-11-23T03:19:52.692Z,3.15
2022-11-23T03:22:22.214Z,3.10
2022-11-23T03:24:51.778Z,2.90
2022-11-23T03:27:23.942Z,2.80
2022-11-23T03:29:53.482Z,2.95
2022-11-23T03:32:23.034Z,3.20
2022-11-23T03:34:52.579Z,3.17
2022-11-23T03:37:22.133Z,3.20
2022-11-23T03:39:51.745Z,2.83
2022-11-23T03:42:23.896Z,2.90
2022-11-23T03:44:53.481Z,3.47
2022-11-23T03:47:23.022Z,3.10
2022-11-23T03:49:52.545Z,3.33
2022-11-23T03:52:22.881Z,3.33
2022-11-23T03:54:52.502Z,3.60
2022-11-23T03:57:24.669Z,3.00
2022-11-23T03:59:54.226Z,3.00
2022-11-23T04:02:23.815Z,3.05
2022-11-23T04:04:53.650Z,3.00
2022-11-23T04:07:23.244Z,3.08
2022-11-23T04:09:52.923Z,3.00
2022-11-23T04:12:25.999Z,3.13
2022-11-23T04:14:55.545Z,2.97
2022-11-23T04:17:25.093Z,3.05
2022-11-23T04:19:54.637Z,3.13
2022-11-23T04:22:24.205Z,2.97
2022-11-23T04:24:53.716Z,2.80
2022-11-23T04:27:25.982Z,3.00
2022-11-23T04:29:55.509Z,3.10
2022-11-23T04:32:25.054Z,3.10
2022-11-23T04:35:01.973Z,2.88
2022-11-23T04:37:33.786Z,3.25
2022-11-23T04:40:08.465Z,3.10
2022-11-23T04:42:40.657Z,2.90
2022-11-23T04:45:15.490Z,3.05
2022-11-23T04:47:45.077Z,3.00
2022-11-23T04:50:14.608Z,3.00
2022-11-23T04:52:44.177Z,3.30
2022-11-23T04:55:13.987Z,3.10
2022-11-23T04:57:49.741Z,3.50
2022-11-23T05:00:20.126Z,3.00
2022-11-23T05:02:49.811Z,2.70
2022-11-23T05:05:19.380Z,3.20
2022-11-23T05:07:49.024Z,3.40
2022-11-23T05:10:18.826Z,3.50
2022-11-23T05:12:51.030Z,3.00
2022-11-23T05:15:20.764Z,3.00
2022-11-23T05:17:51.579Z,3.40
2022-11-23T05:20:23.413Z,3.10
2022-11-23T05:22:52.977Z,3.05
2022-11-23T05:25:22.524Z,3.50
2022-11-23T05:27:54.687Z,3.28
2022-11-23T05:30:24.326Z,3.05
2022-11-23T05:32:53.912Z,3.10
2022-11-23T05:35:23.477Z,3.60
2022-11-23T05:37:53.034Z,3.13
2022-11-23T05:40:22.648Z,3.45
2022-11-23T05:42:57.293Z,3.30
2022-11-23T05:45:26.981Z,3.17
2022-11-23T05:47:57.215Z,3.25
2022-11-23T05:50:30.398Z,3.63
2022-11-23T05:52:59.983Z,3.13
2022-11-23T05:55:29.714Z,3.70
2022-11-23T05:58:01.894Z,3.58
2022-11-23T06:00:31.496Z,3.30
2022-11-23T06:03:02.787Z,3.53
2022-11-23T06:05:32.865Z,3.00
2022-11-23T06:08:02.407Z,3.78
2022-11-23T06:10:31.953Z,3.40
2022-11-23T06:13:07.537Z,3.30
2022-11-23T06:15:37.080Z,3.95
2022-11-23T06:18:06.968Z,3.45
2022-11-23T06:20:36.528Z,3.50
2022-11-23T06:23:06.213Z,3.30
2022-11-23T06:25:35.772Z,3.70
2022-11-23T06:28:08.026Z,3.30
2022-11-23T06:30:37.539Z,3.47
2022-11-23T06:33:07.555Z,3.72
2022-11-23T06:35:37.153Z,3.22
2022-11-23T06:38:06.909Z,3.00
2022-11-23T06:40:36.474Z,3.20
2022-11-23T06:43:09.144Z,3.40
2022-11-23T06:45:38.865Z,3.50
2022-11-23T06:48:09.132Z,3.70
2022-11-23T06:50:38.679Z,3.60
2022-11-23T06:53:08.457Z,3.67
2022-11-23T06:55:38.013Z,3.45
2022-11-23T06:58:10.200Z,3.50
2022-11-23T07:00:39.713Z,3.95
2022-11-23T07:03:09.340Z,3.97
2022-11-23T07:05:41.197Z,4.10
2022-11-23T07:08:11.155Z,4.25
2022-11-23T07:10:40.780Z,3.97
2022-11-23T07:13:14.375Z,3.70
2022-11-23T07:15:43.996Z,3.85
2022-11-23T07:18:13.549Z,3.70
2022-11-23T07:20:43.079Z,3.78
2022-11-23T07:23:13.664Z,4.20
2022-11-23T07:25:43.187Z,3.55
2022-11-23T07:28:16.144Z,4.00
2022-11-23T07:30:45.705Z,3.35
2022-11-23T07:33:15.620Z,3.47
2022-11-23T07:35:45.339Z,3.60
2022-11-23T07:38:15.006Z,3.65
2022-11-23T07:40:44.671Z,3.35
2022-11-23T07:43:17.227Z,3.08
2022-11-23T07:45:47.349Z,3.30
2022-11-23T07:48:17.484Z,3.22
2022-11-23T07:50:47.048Z,3.50
2022-11-23T07:53:17.746Z,3.40
2022-11-23T07:55:47.726Z,3.47
2022-11-23T07:58:20.552Z,3.40
2022-11-23T08:00:50.791Z,6.22
2022-11-23T08:03:30.079Z,3.70
2022-11-23T08:06:00.691Z,3.63
2022-11-23T08:08:31.267Z,3.90
2022-11-23T08:11:00.950Z,3.47
2022-11-23T08:13:34.766Z,3.35
2022-11-23T08:16:04.767Z,3.58
2022-11-23T08:18:34.557Z,3.70
2022-11-23T08:21:04.334Z,3.70
2022-11-23T08:23:34.525Z,3.35
2022-11-23T08:26:10.360Z,3.00
2022-11-23T08:28:45.957Z,3.25
2022-11-23T08:31:15.768Z,3.15
2022-11-23T08:33:46.084Z,2.58
2022-11-23T08:36:22.459Z,2.88
2022-11-23T08:38:54.246Z,2.92
2022-11-23T08:41:24.467Z,2.67
2022-11-23T08:43:57.591Z,2.50
2022-11-23T08:46:27.623Z,2.58
2022-11-23T08:48:58.776Z,2.80
2022-11-23T08:51:29.145Z,3.08
2022-11-23T08:54:00.747Z,2.78
2022-11-23T08:56:30.567Z,2.47
2022-11-23T08:59:08.525Z,2.60
2022-11-23T09:01:38.567Z,3.28
2022-11-23T09:04:10.026Z,2.40
2022-11-23T09:06:43.946Z,2.70
2022-11-23T09:09:16.591Z,2.70
2022-11-23T09:11:46.902Z,2.70
2022-11-23T09:14:22.345Z,2.72
2022-11-23T09:16:52.687Z,2.40
2022-11-23T09:19:22.901Z,2.67
2022-11-23T09:21:54.602Z,6.07
2022-11-23T09:24:30.079Z,2.60
2022-11-23T09:27:02.166Z,5.03
2022-11-23T09:29:38.696Z,4.57
2022-11-23T09:32:09.630Z,2.80
2022-11-23T09:34:40.340Z,2.60
2022-11-23T09:37:10.886Z,2.50
2022-11-23T09:39:41.545Z,2.50
2022-11-23T09:42:25.103Z,2.25
2022-11-23T09:45:09.234Z,2.90
2022-11-23T09:47:48.990Z,2.30
2022-11-23T09:50:25.524Z,2.47
2022-11-23T09:52:55.221Z,2.08
2022-11-23T09:55:28.448Z,2.50
2022-11-23T09:58:02.736Z,2.13
2022-11-23T10:00:40.117Z,2.28
2022-11-23T10:03:13.221Z,2.40
2022-11-23T10:05:44.821Z,2.50
2022-11-23T10:08:17.846Z,2.40
2022-11-23T10:10:48.316Z,2.25
2022-11-23T10:13:27.177Z,2.42
2022-11-23T10:16:05.665Z,2.22
2022-11-23T10:18:39.955Z,2.50
2022-11-23T10:21:13.432Z,3.28
2022-11-23T10:23:56.571Z,2.45
2022-11-23T10:26:29.940Z,2.10
2022-11-23T10:29:01.029Z,2.38
2022-11-23T10:34:07.864Z,2.10
2022-11-23T10:36:38.748Z,2.40
2022-11-23T10:39:17.239Z,2.30
2022-11-23T10:41:47.517Z,2.22
2022-11-23T10:44:30.188Z,2.42
2022-11-23T10:47:03.231Z,2.05
2022-11-23T10:49:33.612Z,2.17
2022-11-23T10:52:05.876Z,2.35
2022-11-23T10:54:36.630Z,2.20
2022-11-23T10:57:23.068Z,2.20
2022-11-23T11:00:00.443Z,2.38
2022-11-23T11:02:32.714Z,2.10
2022-11-23T11:06:01.075Z,2.08
2022-11-23T11:08:17.874Z,2.55
2022-11-23T11:10:50.199Z,2.33
2022-11-23T11:13:26.983Z,2.85
2022-11-23T11:15:57.742Z,2.28
2022-11-23T11:18:34.619Z,2.00
2022-11-23T11:21:06.411Z,2.40
2022-11-23T11:23:36.489Z,2.22
2022-11-23T11:26:16.428Z,2.28
2022-11-23T11:28:46.149Z,2.10
2022-11-23T11:31:29.119Z,1.83
2022-11-23T11:34:04.261Z,2.40
2022-11-23T11:36:37.298Z,2.13
2022-11-23T11:39:18.367Z,2.10
2022-11-23T11:41:48.585Z,1.92
2022-11-23T11:44:20.983Z,2.00
2022-11-23T11:46:52.266Z,2.10
2022-11-23T11:49:26.223Z,2.10
2022-11-23T11:51:57.378Z,2.13
2022-11-23T11:56:58.327Z,2.35
2022-11-23T11:59:29.571Z,1.95
2022-11-23T12:02:00.371Z,2.30
2022-11-23T12:04:37.412Z,2.13
2022-11-23T12:07:08.378Z,2.00
2022-11-23T12:09:39.947Z,3.00
2022-11-23T12:12:14.505Z,2.40
2022-11-23T12:14:44.081Z,2.25
2022-11-23T12:17:32.382Z,2.60
2022-11-23T12:20:07.953Z,1.77
2022-11-23T12:22:42.370Z,1.90
2022-11-23T12:25:19.782Z,1.80
2022-11-23T12:27:56.741Z,1.73
2022-11-23T12:30:27.974Z,2.00
2022-11-23T12:33:06.602Z,2.20
2022-11-23T12:35:58.499Z,1.88
2022-11-23T12:38:32.916Z,2.13
2022-11-23T12:41:11.772Z,1.88
2022-11-23T12:43:48.883Z,2.05
2022-11-23T12:46:20.478Z,2.10
2022-11-23T12:48:58.020Z,2.05
2022-11-23T12:51:36.446Z,1.73
2022-11-23T12:54:15.481Z,2.47
2022-11-23T12:56:58.014Z,1.90
2022-11-23T12:59:27.609Z,2.10
2022-11-23T13:02:00.079Z,1.85
2022-11-23T13:04:49.408Z,1.92
2022-11-23T13:07:42.296Z,1.90
2022-11-23T13:10:21.235Z,2.13
2022-11-23T13:13:15.421Z,1.90
2022-11-23T13:15:54.417Z,1.90
2022-11-23T13:18:30.837Z,2.35
2022-11-23T13:21:08.282Z,2.05
2022-11-23T13:23:41.122Z,1.90
2022-11-23T13:26:20.950Z,1.75
2022-11-23T13:28:50.779Z,1.70
2022-11-23T13:31:23.679Z,1.88
2022-11-23T13:33:55.172Z,2.00
2022-11-23T13:37:11.157Z,1.73
2022-11-23T13:40:03.811Z,1.92
2022-11-23T13:42:37.432Z,1.90
2022-11-23T13:45:17.570Z,1.88
2022-11-23T13:48:08.472Z,1.75
2022-11-23T13:50:38.066Z,1.80
2022-11-23T13:53:07.647Z,1.88
2022-11-23T13:55:37.858Z,1.85
2022-11-23T13:58:49.392Z,1.70
2022-11-23T14:01:46.882Z,1.88
2022-11-23T14:04:22.708Z,2.30
2022-11-23T14:06:55.492Z,2.00
2022-11-23T14:09:27.871Z,1.80
2022-11-23T14:12:06.820Z,1.90
2022-11-23T14:14:44.165Z,1.80
2022-11-23T14:17:33.198Z,1.95
2022-11-23T14:20:22.579Z,1.70
2022-11-23T14:23:00.858Z,1.70
2022-11-23T14:25:38.548Z,1.80
2022-11-23T14:28:12.311Z,2.00
2022-11-23T14:30:49.561Z,2.10
2022-11-23T14:33:29.988Z,2.03
2022-11-23T14:36:08.922Z,2.22
2022-11-23T14:38:49.783Z,1.60
2022-11-23T14:41:20.474Z,1.98
2022-11-23T14:43:49.941Z,1.90
2022-11-23T14:46:21.178Z,1.80
2022-11-23T14:48:53.493Z,2.00
2022-11-23T14:51:26.553Z,1.90
2022-11-23T14:53:57.164Z,1.90
2022-11-23T14:56:33.075Z,2.10
2022-11-23T14:59:04.556Z,1.85
2022-11-23T15:01:34.108Z,1.92
2022-11-23T15:04:11.297Z,1.80
2022-11-23T15:06:45.586Z,1.92
2022-11-23T15:09:19.172Z,2.20
2022-11-23T15:11:49.224Z,1.80
2022-11-23T15:14:20.612Z,1.90
2022-11-23T15:16:50.255Z,2.13
2022-11-23T15:19:26.055Z,1.85
2022-11-23T15:21:55.536Z,1.90
2022-11-23T15:24:25.617Z,1.80
2022-11-23T15:26:55.528Z,2.22
2022-11-23T15:29:35.831Z,1.80
2022-11-23T15:32:33.374Z,2.55
2022-11-23T15:35:08.310Z,1.98
2022-11-23T15:37:40.633Z,1.80
2022-11-23T15:40:15.606Z,2.05
2022-11-23T15:42:45.352Z,2.10
2022-11-23T15:45:36.110Z,1.70
2022-11-23T15:48:05.895Z,1.83
2022-11-23T15:50:38.476Z,2.00
2022-11-23T15:53:07.939Z,2.20
2022-11-23T15:55:37.434Z,2.00
2022-11-23T15:58:07.673Z,1.80
2022-11-23T16:00:37.181Z,2.40
2022-11-23T16:03:34.925Z,1.90
2022-11-23T16:06:25.356Z,2.03
2022-11-23T16:08:54.812Z,2.33
2022-11-23T16:11:32.609Z,2.33
2022-11-23T16:14:15.400Z,6.65
2022-11-23T16:16:46.269Z,4.75
2022-11-23T16:22:02.581Z,3.50
2022-11-23T16:24:32.991Z,6.43
2022-11-23T16:27:03.146Z,2.60
2022-11-23T16:29:38.793Z,2.60
2022-11-23T16:32:09.596Z,2.85
2022-11-23T16:34:39.121Z,3.63
2022-11-23T16:37:11.193Z,2.28
2022-11-23T16:39:40.627Z,5.57
2022-11-23T16:42:10.081Z,4.30
2022-11-23T16:44:41.906Z,6.05
2022-11-23T16:47:24.785Z,3.10
2022-11-23T16:49:54.445Z,2.75
2022-11-23T16:52:26.603Z,7.15
2022-11-23T16:54:56.027Z,5.25
2022-11-23T16:57:31.615Z,12.77
2022-11-23T17:00:10.526Z,3.05
2022-11-23T17:02:40.025Z,9.27
2022-11-23T17:05:12.378Z,8.15
2022-11-23T17:07:44.467Z,3.33
2022-11-23T17:10:14.163Z,3.78
2022-11-23T17:12:43.744Z,3.50
2022-11-23T17:15:13.603Z,4.20
2022-11-23T17:17:43.299Z,4.80
2022-11-23T17:20:14.239Z,3.30
2022-11-23T17:22:46.491Z,2.90
2022-11-23T17:25:15.906Z,3.65
2022-11-23T17:27:46.188Z,4.10
2022-11-23T17:30:17.390Z,4.57
2022-11-23T17:32:46.896Z,2.80
2022-11-23T17:35:16.447Z,2.65
2022-11-23T17:37:48.676Z,2.70
2022-11-23T17:40:18.688Z,3.90
2022-11-23T17:42:48.285Z,4.00
2022-11-23T17:45:18.014Z,2.75
2022-11-23T17:47:47.725Z,6.55
2022-11-23T17:50:19.670Z,4.40
2022-11-23T17:52:51.709Z,4.07
2022-11-23T17:55:21.153Z,10.13
2022-11-23T17:57:50.580Z,4.60
2022-11-23T18:00:21.955Z,4.47
2022-11-23T18:02:52.947Z,3.22
2022-11-23T18:05:22.612Z,2.90
2022-11-23T18:07:54.761Z,3.33
2022-11-23T18:10:24.300Z,2.80
2022-11-23T18:12:53.770Z,3.20
2022-11-23T18:15:23.458Z,3.00
2022-11-23T18:17:52.908Z,3.08
2022-11-23T18:20:22.596Z,3.22
2022-11-23T18:22:54.653Z,4.38
2022-11-23T18:25:24.112Z,5.13
2022-11-23T18:27:54.369Z,5.50
2022-11-23T18:30:23.835Z,5.73
2022-11-23T18:32:53.306Z,6.00
2022-11-23T18:35:23.003Z,6.20
2022-11-23T18:37:55.052Z,7.10
2022-11-23T18:40:24.531Z,7.63
2022-11-23T18:42:54.004Z,7.97
2022-11-23T18:45:23.674Z,7.35
2022-11-23T18:47:53.156Z,5.00
2022-11-23T18:50:22.632Z,4.82
2022-11-23T18:52:54.902Z,4.93
2022-11-23T18:55:24.358Z,4.80
2022-11-23T18:57:55.960Z,4.75
2022-11-23T19:00:25.658Z,5.50
2022-11-23T19:02:55.990Z,6.68
2022-11-23T19:05:25.556Z,7.60
2022-11-23T19:07:57.636Z,6.80
2022-11-23T19:10:27.176Z,7.72
2022-11-23T19:12:58.813Z,7.40
2022-11-23T19:15:31.863Z,6.40
2022-11-23T19:18:01.433Z,8.57
2022-11-23T19:20:31.504Z,9.40
2022-11-23T19:23:03.529Z,8.38
2022-11-23T19:25:33.837Z,4.00
2022-11-23T19:28:03.333Z,3.75
2022-11-23T19:30:32.807Z,4.78
2022-11-23T19:33:02.246Z,6.00
2022-11-23T19:35:31.745Z,5.90
2022-11-23T19:38:03.788Z,3.72
2022-11-23T19:40:33.251Z,3.30
2022-11-23T19:43:02.926Z,3.22
2022-11-23T19:45:32.564Z,3.20
2022-11-23T19:48:02.045Z,3.10
2022-11-23T19:50:31.785Z,3.10
2022-11-23T19:53:12.467Z,5.70
2022-11-23T19:58:11.607Z,13.40
2022-11-23T20:00:45.957Z,10.25
2022-11-23T20:03:15.717Z,7.28
2022-11-23T20:05:59.027Z,6.60
2022-11-23T20:08:31.186Z,5.68
2022-11-23T20:11:00.726Z,5.15
2022-11-23T20:13:30.163Z,5.30
2022-11-23T20:16:04.057Z,6.50
2022-11-23T20:18:33.576Z,6.43
2022-11-23T20:21:03.125Z,6.30
2022-11-23T20:23:35.168Z,6.93
2022-11-23T20:26:04.596Z,7.18
2022-11-23T20:28:34.049Z,9.05
2022-11-23T20:31:06.079Z,7.85
2022-11-23T20:33:35.594Z,7.60
2022-11-23T20:36:12.004Z,7.47
2022-11-23T20:38:44.068Z,6.82
2022-11-23T20:41:15.456Z,6.80
2022-11-23T20:43:45.615Z,6.63
2022-11-23T20:46:31.682Z,6.47
2022-11-23T20:49:04.771Z,5.70
2022-11-23T20:51:34.281Z,5.10
2022-11-23T20:54:06.890Z,5.70
2022-11-23T20:56:36.374Z,5.70
2022-11-23T20:59:05.829Z,5.80
2022-11-23T21:01:35.367Z,6.68
2022-11-23T21:04:04.896Z,7.53
2022-11-23T21:06:39.006Z,8.90
2022-11-23T21:09:12.326Z,8.00
2022-11-23T21:11:54.269Z,6.20
2022-11-23T21:14:24.662Z,5.20
2022-11-23T21:16:56.191Z,5.10
2022-11-23T21:19:26.559Z,5.10
2022-11-23T21:21:56.828Z,5.40
2022-11-23T21:24:28.919Z,5.82
2022-11-23T21:26:58.402Z,5.43
2022-11-23T21:29:28.412Z,5.07
2022-11-23T21:31:57.908Z,5.47
2022-11-23T21:34:28.114Z,5.30
2022-11-23T21:36:58.665Z,4.87
2022-11-23T21:39:33.141Z,5.55
2022-11-23T21:42:02.708Z,5.65
2022-11-23T21:44:32.623Z,5.43
2022-11-23T21:47:02.438Z,5.60
2022-11-23T21:49:31.938Z,6.18
2022-11-23T21:52:01.419Z,6.00
2022-11-23T21:54:33.771Z,6.05
2022-11-23T21:57:03.352Z,5.55
2022-11-23T21:59:32.824Z,5.60
2022-11-23T22:02:02.379Z,5.68
2022-11-23T22:04:32.125Z,5.40
2022-11-23T22:07:01.664Z,5.70
2022-11-23T22:09:34.401Z,5.28
2022-11-23T22:12:03.872Z,5.10
2022-11-23T22:14:33.486Z,5.57
2022-11-23T22:17:03.135Z,5.90
2022-11-23T22:19:32.555Z,4.35
2022-11-23T22:22:02.103Z,4.90
2022-11-23T22:24:34.436Z,5.20
2022-11-23T22:27:04.179Z,4.72
2022-11-23T22:29:33.667Z,4.65
2022-11-23T22:32:03.178Z,4.55
2022-11-23T22:34:35.480Z,4.28
2022-11-23T22:37:10.239Z,4.82
2022-11-23T22:39:42.905Z,5.10
2022-11-23T22:42:12.367Z,5.43
2022-11-23T22:44:41.870Z,5.18
2022-11-23T22:47:11.455Z,5.20
2022-11-23T22:49:40.905Z,4.40
2022-11-23T22:52:10.379Z,3.90
2022-11-23T22:54:42.380Z,3.75
2022-11-23T22:57:12.064Z,4.05
2022-11-23T22:59:41.506Z,4.00
2022-11-23T23:02:11.115Z,4.30
2022-11-23T23:04:40.578Z,4.93
2022-11-23T23:07:10.770Z,4.63
2022-11-23T23:09:42.860Z,4.50
2022-11-23T23:12:20.714Z,4.00
2022-11-23T23:14:50.156Z,4.75
2022-11-23T23:17:19.613Z,4.70
2022-11-23T23:19:49.061Z,4.82
2022-11-23T23:22:18.592Z,3.90
2022-11-23T23:24:51.403Z,4.35
2022-11-23T23:27:21.136Z,3.92
2022-11-23T23:29:50.615Z,3.85
2022-11-23T23:32:20.069Z,3.65
2022-11-23T23:34:49.646Z,3.20
2022-11-23T23:37:19.165Z,3.22
2022-11-23T23:39:51.256Z,3.25
2022-11-23T23:42:20.889Z,3.80
2022-11-23T23:44:50.341Z,4.07
2022-11-23T23:47:19.795Z,6.45
2022-11-23T23:49:49.375Z,13.30
2022-11-23T23:52:18.807Z,8.68
2022-11-23T23:54:50.897Z,6.97
2022-11-23T23:57:20.357Z,6.47
2022-11-23T23:59:49.950Z,5.95
